Latest Weather Observations for Mount Buller

IDV60801

Issued at 3:35 am EST Saturday 30 August 2014 (issued every 30 minutes, with the page automatically refreshed every 10 minutes)

About weather observations | Map of weather stations | Latest weather observations for VIC | Other Formats
Station Details ID: 083024 Name: MOUNT BULLER Lat: -37.15 Lon: 146.44 Height: 1707.0 m
Data from the previous 72 hours. | See also: Recent months at Mount Buller
Date/Time
EST
Temp
°C
App
Temp
°C
Dew
Point
Rel
Hum
%
Delta-T
°C
Wind Press
QNH
hPa
Press
MSL
hPa
Rain
since 9 am
mm
Dir
 
Spd
km/h
Gust
km/h
Spd
kts
Gust
kts
30/03:30am 3.8 - -6.2 48 3.6 - - - - - - - -
30/03:00am 3.9 - -5.8 49 3.5 - - - - - - - 0.0
30/02:30am 4.2 - -5.0 51 3.4 - - - - - - - -
30/02:00am 4.4 - -4.6 52 3.4 - - - - - - - -
30/01:30am 4.2 - -4.5 53 3.3 - - - - - - - -
30/01:00am 4.1 - -4.4 54 3.2 - - - - - - - -
30/12:30am 4.0 - -4.2 55 3.1 - - - - - - - -
30/12:00am 4.3 - -4.2 54 3.2 - - - - - - - -
 
Date/Time
EST
Temp
°C
App
Temp
°C
Dew
Point
Rel
Hum
%
Delta-T
°C
Wind Press
QNH
hPa
Press
MSL
hPa
Rain
since 9 am
mm
Dir
 
Spd
km/h
Gust
km/h
Spd
kts
Gust
kts
29/11:30pm 4.2 - -3.5 57 3.0 - - - - - - - -
29/11:00pm 4.1 - -3.2 59 2.9 - - - - - - - -
29/10:30pm 4.2 - -2.6 61 2.7 - - - - - - - -
29/10:00pm 4.4 - -2.0 63 2.6 - - - - - - - -
29/09:30pm 4.2 - -1.0 69 2.1 - - - - - - - -
29/09:00pm 3.9 - -0.5 73 1.8 - - - - - - - 0.0
29/08:30pm 4.0 - -0.2 74 1.8 - - - - - - - -
29/08:00pm 3.9 - 0.2 77 1.6 - - - - - - - -
29/07:30pm 4.3 - 1.5 82 1.2 - - - - - - - -
29/07:00pm 4.2 - 1.6 83 1.1 - - - - - - - -
29/06:30pm 4.6 - 1.5 80 1.4 - - - - - - - -
29/06:00pm 5.2 - 1.3 76 1.7 - - - - - - - -
29/05:30pm 4.4 - 1.6 82 1.2 - - - - - - - -
29/05:00pm 5.5 - 2.2 79 1.5 - - - - - - - -
29/04:30pm 5.6 - 1.9 77 1.7 - - - - - - - -
29/04:00pm 6.1 - 1.4 72 2.1 - - - - - - - -
29/03:30pm 5.6 - 0.4 69 2.3 - - - - - - - -
29/03:00pm 6.4 - 0.3 65 2.7 - - - - - - - 0.0
29/02:30pm 5.7 - 0.9 71 2.1 - - - - - - - -
29/02:00pm 6.1 - 0.6 68 2.4 - - - - - - - -
29/01:30pm 5.7 - 0.9 71 2.1 - - - - - - - -
29/01:00pm 6.1 - 0.0 65 2.6 - - - - - - - -
29/12:30pm 5.8 - -0.5 64 2.7 - - - - - - - -
29/12:00pm 7.5 - -2.0 51 4.0 - - - - - - - -
29/11:30am 8.2 - -3.0 45 4.6 - - - - - - - -
29/11:00am 7.7 - -6.0 37 5.2 - - - - - - - -
29/10:30am 6.8 - -6.8 37 5.0 - - - - - - - -
29/10:00am 7.9 - -5.9 37 5.3 - - - - - - - -
29/09:30am 8.6 - -5.6 36 5.5 - - - - - - - -
29/09:00am 6.5 - -6.4 39 4.8 - - - - - - - 0.0
29/08:30am 5.9 - -5.1 45 4.2 - - - - - - - -
29/08:00am 6.2 - -7.7 36 5.0 - - - - - - - -
29/07:30am 6.0 - -10.2 30 5.4 - - - - - - - -
29/07:00am 5.2 - -11.8 28 5.7 - - - - - - - -
29/06:30am 5.0 - -10.7 31 5.4 - - - - - - - -
29/06:00am 4.7 - -10.2 33 5.2 - - - - - - - -
29/05:30am 4.2 - -11.8 30 5.3 - - - - - - - -
29/05:00am 3.2 - -11.1 34 4.7 - - - - - - - -
29/04:30am 3.7 - -8.0 42 4.2 - - - - - - - -
29/04:00am 2.9 - -2.0 70 1.9 - - - - - - - -
29/03:30am 3.0 - -0.1 80 1.3 - - - - - - - -
29/03:00am 3.6 - -0.6 74 1.7 - - - - - - - 0.0
29/02:30am 3.3 - -2.2 67 2.2 - - - - - - - -
29/02:00am 3.8 - -8.2 41 4.3 - - - - - - - -
29/01:30am 4.3 - -8.7 38 4.7 - - - - - - - -
29/01:00am 4.3 - -8.1 40 4.3 - - - - - - - -
29/12:30am 4.4 - -8.0 40 4.3 - - - - - - - -
29/12:00am 3.6 - -3.6 59 2.8 - - - - - - - -
 
Date/Time
EST
Temp
°C
App
Temp
°C
Dew
Point
Rel
Hum
%
Delta-T
°C
Wind Press
QNH
hPa
Press
MSL
hPa
Rain
since 9 am
mm
Dir
 
Spd
km/h
Gust
km/h
Spd
kts
Gust
kts
28/11:30pm 3.5 - -2.2 66 2.3 - - - - - - - -
28/11:00pm 4.0 - -1.8 66 2.3 - - - - - - - -
28/10:30pm 4.2 - -3.3 58 2.9 - - - - - - - -
28/10:00pm 4.4 - -5.1 50 3.5 - - - - - - - -
28/09:30pm 4.7 - -8.0 39 4.4 - - - - - - - -
28/09:00pm 4.0 - -7.1 44 3.9 - - - - - - - 0.0
28/08:30pm 3.9 - -2.5 63 2.5 - - - - - - - -
28/08:00pm 4.0 - -2.0 65 2.4 - - - - - - - -
28/07:30pm 4.5 - -2.4 61 2.8 - - - - - - - -
28/07:00pm 4.8 - -4.5 51 3.5 - - - - - - - -
28/06:30pm 4.2 - -2.0 64 2.5 - - - - - - - -
28/06:00pm 4.1 - -1.5 67 2.3 - - - - - - - -
28/05:30pm 4.3 - -0.9 69 2.2 - - - - - - - -
28/05:00pm 5.1 - -2.0 60 2.9 - - - - - - - -
28/04:30pm 5.6 - -2.7 55 3.3 - - - - - - - -
28/04:00pm 5.7 - -1.9 58 3.1 - - - - - - - -
28/03:30pm 6.0 - -6.9 39 4.7 - - - - - - - -
28/03:00pm 6.1 - -7.1 38 4.8 - - - - - - - 0.0
28/02:30pm 6.0 - -6.2 41 4.5 - - - - - - - -
28/02:00pm 6.0 - -6.6 40 4.6 - - - - - - - -
28/01:30pm 5.9 - -6.6 40 4.6 - - - - - - - -
28/01:00pm 5.7 - -7.2 39 4.6 - - - - - - - -
28/12:30pm 5.7 - -7.5 38 4.7 - - - - - - - -
28/12:00pm 5.9 - -7.3 38 4.8 - - - - - - - -
28/11:30am 5.8 - -10.4 30 5.4 - - - - - - - -
28/11:00am 6.3 - -13.3 23 6.1 - - - - - - - -
28/10:30am 5.7 - -12.8 25 6.1 - - - - - - - -
28/10:00am 5.4 - -13.5 24 6.1 - - - - - - - -
28/09:30am 4.7 - -13.6 25 5.8 - - - - - - - -
28/09:00am 3.9 - -13.8 26 5.5 - - - - - - - 0.0
28/08:30am 3.2 - -14.9 25 5.4 - - - - - - - -
28/08:00am 3.4 - -16.8 21 5.8 - - - - - - - -
28/07:30am 2.9 - -16.7 22 5.5 - - - - - - - -
28/07:00am 2.0 - -18.0 21 5.4 - - - - - - - -
28/06:30am 2.1 - -17.9 21 5.4 - - - - - - - -
28/06:00am 2.1 - -17.9 21 5.4 - - - - - - - -
28/05:30am 2.2 - -17.8 21 5.4 - - - - - - - -
28/05:00am 2.6 - -18.1 20 5.6 - - - - - - - -
28/04:30am 4.1 - -21.0 14 6.5 - - - - - - - -
28/04:00am 3.5 - -20.7 15 6.3 - - - - - - - -
28/03:30am 2.7 - -18.6 19 5.7 - - - - - - - -
28/03:00am 2.5 - -18.7 19 5.6 - - - - - - - 0.0
28/02:30am 2.7 - -18.0 20 5.6 - - - - - - - -
28/02:00am 2.1 - -17.4 22 5.3 - - - - - - - -
28/01:30am 2.1 - -18.5 20 5.5 - - - - - - - -
28/01:00am 2.1 - -17.4 22 5.3 - - - - - - - -
28/12:30am 1.8 - -17.1 23 5.2 - - - - - - - -
28/12:00am 2.1 - -16.8 23 5.2 - - - - - - - -
 
Date/Time
EST
Temp
°C
App
Temp
°C
Dew
Point
Rel
Hum
%
Delta-T
°C
Wind Press
QNH
hPa
Press
MSL
hPa
Rain
since 9 am
mm
Dir
 
Spd
km/h
Gust
km/h
Spd
kts
Gust
kts
27/11:30pm 3.7 - -17.7 19 6.0 - - - - - - - -
27/11:00pm 2.5 - -15.0 26 5.1 - - - - - - - -
27/10:30pm 3.9 - -18.2 18 6.1 - - - - - - - -
27/10:00pm 3.4 - -15.7 23 5.6 - - - - - - - -
27/09:30pm 3.1 - -14.5 26 5.3 - - - - - - - -
27/09:00pm 3.6 - -15.6 23 5.7 - - - - - - - 0.0
27/08:30pm 3.6 - -15.0 24 5.6 - - - - - - - -
27/08:00pm 4.0 - -13.3 27 5.5 - - - - - - - -
27/07:30pm 2.8 - -2.5 68 2.1 - - - - - - - -
27/07:00pm 2.4 - -2.3 71 1.8 - - - - - - - -
27/06:30pm 2.2 - -3.3 67 2.1 - - - - - - - -
27/06:00pm 2.7 - -3.4 64 2.3 - - - - - - - -
27/05:30pm 3.1 - -3.2 63 2.4 - - - - - - - -
27/05:00pm 4.3 - -3.4 57 3.0 - - - - - - - -
27/04:30pm 4.8 - -3.7 54 3.3 - - - - - - - -
27/04:00pm 5.1 - -3.7 53 3.4 - - - - - - - -
27/03:30pm 5.3 - -3.5 53 3.5 - - - - - - - -
27/03:00pm 5.0 - -3.8 53 3.4 - - - - - - - 0.0
27/02:30pm 5.2 - -3.3 54 3.4 - - - - - - - -
27/02:00pm 4.9 - -2.9 57 3.1 - - - - - - - -
27/01:30pm 4.7 - -3.1 57 3.1 - - - - - - - -
27/01:00pm 4.7 - -2.4 60 2.8 - - - - - - - -
27/12:30pm 4.5 - -2.1 62 2.7 - - - - - - - -
27/12:00pm 4.4 - -1.4 66 2.4 - - - - - - - -
27/11:30am 4.0 - -0.6 72 1.9 - - - - - - - -
27/11:00am 4.0 - -0.6 72 1.9 - - - - - - - -
27/10:30am 3.7 - -0.7 73 1.8 - - - - - - - -
27/10:00am 3.7 - 0.1 77 1.5 - - - - - - - -
27/09:30am 3.6 - 0.7 81 1.2 - - - - - - - -
27/09:00am 3.1 - 1.2 87 0.8 - - - - - - - 0.0
27/08:30am 3.1 - 0.8 85 1.0 - - - - - - - -
27/08:00am 2.8 - 1.2 89 0.7 - - - - - - - -
27/07:30am 2.8 - 0.7 86 0.9 - - - - - - - -
27/07:00am 2.7 - 0.4 85 1.0 - - - - - - - -
27/06:30am 2.5 - 0.2 85 1.0 - - - - - - - -
27/06:00am 2.4 - -0.2 83 1.1 - - - - - - - -
27/05:30am 2.8 - 0.9 87 0.8 - - - - - - - -
27/05:00am 2.5 - 0.9 89 0.7 - - - - - - - -
27/04:30am 2.5 - 0.1 84 1.0 - - - - - - - -
27/04:00am 2.8 - 0.9 87 0.8 - - - - - - - -

Other Formats:

Comma delimited format used in spreadsheet applications
http://www.bom.gov.au/fwo/IDV60801/IDV60801.94894.axf

JavaScript Object Notation format (JSON) in row-major order
http://www.bom.gov.au/fwo/IDV60801/IDV60801.94894.json